Terminal Aerodrome Forecast
Issued by NWS

Home | Current Version | Previous Version | Text Only | Print | Product List | Glossary On
Versions: 1 2 3 4 5 6 7 8 9 10 11 12 13 14 15 16 17 18 19 20 21 22 23 24 25 26 27 28 29 30 31 32 33 34 35 36 37 38 39
000
FTUS46 KOTX 172337
TAFPUW
TAF
KPUW 172337Z 1800/1824 10012KT 5SM -SHSN BR OVC013
     FM180300 17011KT 6SM -RA BR BKN015 OVC020
     FM180600 22012G24KT 5SM -RA BR OVC020
     FM180800 22020G25KT P6SM OVC025
     FM181400 23015G28KT P6SM -RA OVC020=

USA.gov is the U.S. government's official web portal to all federal, state and local government web resources and services.